Terminal Aerodrome Forecast
Issued by NWS North Platte, NE

Home | Current Version | Previous Version | Text Only | Print | Product List | Glossary On
Versions: 1 2 3 4 5 6 7 8 9 10 11 12 13
000
FTUS43 KLBF 232320
TAFVTN
TAF
KVTN 232320Z 2400/2424 11009KT P6SM SCT120
     FM240300 10009KT P6SM BKN030
     FM240500 09008KT P6SM BKN015
     FM240600 08007KT P6SM OVC008
     FM240800 06008KT 3SM -SN OVC003
     FM241200 03010KT 1 1/2SM -SN OVC003
     FM241700 01014G23KT 1/2SM SN OVC003
     FM242000 01015G24KT 1/2SM SN BLSN OVC003=

USA.gov is the U.S. government's official web portal to all federal, state and local government web resources and services.